La Grande Rivière Airport
CYGL : now visible

Airfield :











YOU CAN JOIN US ON...

 
LOGIN :

Register | Disclaimer

   EN    FR    IT 

 









Legend :    VFR   Marginal VFR   IFR   Intensive IFR   Very Intensive IFR
Visi :
Ceiling :
>= 8 km
>= 3000ft
5 to 8 km
1000 to 3000 ft
1500m to 5 km
500 to 1000 ft
800 to 1500m
200 to 500 ft
< 800m
< 200 ft
Symbols :   Thunderstorms  Fog  Heavy snow  Heavy precipitations  Wind > 20 kt






- Airport Elevation : 639 ft
- IATA code : YGL


CYGL - La Grande Rivière

CURRENT METAR :
  • 072300Z 21011KT 15SM FEW045TCU BKN240 25/15 A2983 RMK TCU1CI6 SLP107 DENSITY ALT 2100FT

EXPIRED METARs :
  • 072200Z 23014G20KT 15SM FEW045TCU BKN240 27/15 A2984 RMK TCU1CI4 DIST CB NE SLP110 DENSITY ALT 2300FT
  • 072100Z 22010G23KT 15SM FEW045 SCT240 28/16 A2984 RMK CU1CI2 SLP110 DENSITY ALT 2400FT

TAF TAF CYGL
Valid from the 07 at 18:00 until the 08 at 18:00 UTC


071738Z 0718/0818 24012G22KT P6SM FEW050 BKN150 BKN240
BECMG 0718/0720 24015G25KT
FM080300 24012KT P6SM BKN050
PROB30 0803/0808 VRB15G25KT 2SM TSRA BR BKN020 OVC050CB
FM080800 24015G25KT P6SM BKN070
FM081500 23015G25KT P6SM -SHRA BKN040
PROB30 0817/0818 VRB15G25KT 2SM TSRA BR BKN020 OVC050CB RMK NXT FCST BY 080000Z
CZUL FIR / North America



MET'MAP, your aeronautical weather chart ! - Copyright ORBIFLY December 2007 - Disclaimer

ORBIFLY MET'MAP TEAM :

Programming & Development : Alexandra Zaïnal
Concept & original design : Baudouin d'Aumeries
Assistance for programming : Marc-Olivier Méhu
Technical & hardware support : Manuel Goepfert

Contact : metmap@orbifly.com




SOURCES & CREDITS :

   NOAA       Earth
Advisory